Time;durP1;ratioP1;P1;durP2;ratioP2;P2;SDS_P1;SDS_P2;PMS_P1;PMS_P2;Temp;Humidity;BMP_temperature;BMP_pressure;BME280_temperature;BME280_humidity;BME280_pressure;Samples;Min_cycle;Max_cycle;Signal;HPM_P1;HPM_P2
2022/10/03 06:16:27;;;;;;;4.78;2.87;;;;;;;11.99;100.00;100515.47;6693014;26;20086;-90
2022/10/03 06:20:16;;;;;;;5.05;2.40;;;;;;;12.00;100.00;100523.41;6688586;26;33802;-91
2022/10/03 06:27:39;;;;;;;6.00;2.62;;;;;;;12.17;98.60;100531.34;6637158;26;20075;-89
2022/10/03 06:31:14;;;;;;;4.72;2.50;;;;;;;12.20;97.63;100526.41;6636789;26;33763;-90
2022/10/03 06:52:09;;;;;;;5.07;2.28;;;;;;;12.72;92.98;100540.84;6656327;26;20075;-89
2022/10/03 07:03:58;;;;;;;5.85;2.65;;;;;;;13.00;90.21;100541.00;6660436;26;20078;-89
2022/10/03 07:15:48;;;;;;;6.40;2.40;;;;;;;13.28;87.84;100543.84;6655048;26;20414;-89
2022/10/03 07:19:25;;;;;;;2.78;1.70;;;;;;;13.36;85.70;100553.69;6686050;26;33030;-90
2022/10/03 07:22:52;;;;;;;6.47;2.05;;;;;;;13.31;86.08;100554.28;6665541;26;31855;-91
2022/10/03 07:26:29;;;;;;;3.95;2.30;;;;;;;13.28;85.29;100551.09;6692595;26;34909;-91
2022/10/03 07:46:29;;;;;;;4.85;2.03;;;;;;;14.05;81.63;100555.78;6687131;26;20087;-92
2022/10/03 08:01:37;;;;;;;4.53;2.17;;;;;;;14.52;77.20;100568.66;6699887;26;34102;-91
2022/10/03 08:13:12;;;;;;;5.07;2.20;;;;;;;14.86;76.09;100566.09;6661448;26;20090;-89
2022/10/03 08:58:04;;;;;;;2.58;1.40;;;;;;;15.54;67.82;100552.59;6644724;26;34253;-91
2022/10/03 09:01:54;;;;;;;7.03;1.87;;;;;;;15.86;66.90;100549.09;6620554;26;33945;-91
2022/10/03 09:05:20;;;;;;;3.58;1.65;;;;;;;15.67;67.14;100560.72;6614685;27;33218;-91
2022/10/03 09:08:45;;;;;;;3.67;1.75;;;;;;;15.95;67.53;100563.31;6614972;27;34166;-91
2022/10/03 09:12:20;;;;;;;3.08;1.35;;;;;;;16.33;66.71;100540.91;6614629;27;33844;-91
2022/10/03 09:15:41;;;;;;;2.05;1.30;;;;;;;17.03;61.42;100546.59;6608933;27;34238;-91
2022/10/03 09:18:51;;;;;;;3.53;1.58;;;;;;;16.90;61.60;100558.34;6611542;26;33584;-90
2022/10/03 09:22:18;;;;;;;6.00;1.87;;;;;;;17.19;61.37;100556.13;6610684;27;35080;-90
2022/10/03 09:33:55;;;;;;;3.70;1.77;;;;;;;17.07;59.12;100561.41;6634355;26;20076;-91
2022/10/03 09:41:48;;;;;;;5.68;1.65;;;;;;;17.64;57.32;100559.66;6618810;26;20071;-91
2022/10/03 09:57:42;;;;;;;1.95;1.60;;;;;;;17.00;58.77;100539.69;6655338;26;20047;-89
2022/10/03 10:01:06;;;;;;;2.67;1.35;;;;;;;17.56;57.77;100545.47;6656368;26;34948;-88
2022/10/03 10:04:35;;;;;;;3.17;1.37;;;;;;;17.44;57.68;100539.88;6650252;26;34818;-88
2022/10/03 10:08:08;;;;;;;4.70;1.58;;;;;;;17.10;57.43;100536.50;6647875;26;33802;-88
2022/10/03 10:11:35;;;;;;;3.33;1.58;;;;;;;17.25;58.17;100546.28;6641866;26;35067;-89
2022/10/03 10:15:20;;;;;;;2.15;1.25;;;;;;;17.20;57.66;100549.66;6637890;26;34377;-88
2022/10/03 10:18:49;;;;;;;2.92;1.40;;;;;;;17.03;60.29;100554.75;6608597;26;33708;-87
2022/10/03 10:22:16;;;;;;;2.35;1.50;;;;;;;17.35;56.88;100547.47;6635857;26;34044;-87
2022/10/03 10:25:38;;;;;;;1.75;1.27;;;;;;;17.09;58.72;100547.62;6640773;26;35155;-90
2022/10/03 10:29:14;;;;;;;4.15;1.30;;;;;;;16.85;59.26;100554.59;6638138;26;33200;-87
2022/10/03 10:32:54;;;;;;;3.42;1.52;;;;;;;16.62;59.35;100557.81;6638257;26;33537;-89
2022/10/03 10:36:16;;;;;;;5.55;1.90;;;;;;;16.81;60.91;100559.63;6643502;26;33402;-88
2022/10/03 10:39:38;;;;;;;3.60;1.45;;;;;;;17.27;59.73;100549.63;6650264;26;33569;-89
2022/10/03 10:42:53;;;;;;;3.65;1.23;;;;;;;17.07;58.45;100552.44;6654907;26;34898;-88
2022/10/03 10:46:18;;;;;;;2.80;1.10;;;;;;;17.16;57.95;100559.28;6654821;26;34040;-89
2022/10/03 10:49:28;;;;;;;8.98;1.30;;;;;;;17.00;57.40;100558.75;6665199;26;34895;-91
2022/10/03 10:52:46;;;;;;;3.37;1.42;;;;;;;16.68;58.75;100551.50;6664543;26;34418;-89
2022/10/03 10:56:35;;;;;;;1.67;0.95;;;;;;;16.57;60.33;100536.69;6660390;26;33253;-89
2022/10/03 11:00:24;;;;;;;3.17;1.40;;;;;;;16.51;59.79;100546.53;6646816;26;33715;-88
2022/10/03 11:04:01;;;;;;;2.00;1.20;;;;;;;16.55;58.95;100539.63;6667773;26;33588;-88
2022/10/03 11:07:14;;;;;;;5.00;1.67;;;;;;;16.37;59.97;100541.31;6661621;26;33120;-88
2022/10/03 11:10:31;;;;;;;6.72;1.65;;;;;;;16.32;60.37;100548.25;6671060;26;34960;-89
2022/10/03 11:14:02;;;;;;;3.10;1.12;;;;;;;16.40;59.59;100535.47;6667629;26;33468;-89
2022/10/03 11:17:23;;;;;;;2.90;1.23;;;;;;;16.46;61.42;100537.34;6663693;26;33924;-88
2022/10/03 11:20:30;;;;;;;2.20;1.08;;;;;;;17.58;55.87;100556.94;6642997;26;32566;-89
2022/10/03 11:24:12;;;;;;;1.52;1.00;;;;;;;18.09;56.13;100562.25;6663393;26;33481;-88
2022/10/03 11:27:30;;;;;;;3.45;1.30;;;;;;;18.08;55.14;100552.44;6635770;26;219019;-88
2022/10/03 11:30:52;;;;;;;2.20;1.40;;;;;;;19.54;51.45;100547.19;6643622;26;31938;-88
2022/10/03 11:34:13;;;;;;;1.35;1.20;;;;;;;20.71;47.56;100551.09;6662908;26;35009;-89
2022/10/03 11:37:41;;;;;;;3.78;1.20;;;;;;;20.21;49.43;100552.44;6663610;26;33575;-89
2022/10/03 11:40:53;;;;;;;2.92;1.40;;;;;;;18.34;54.56;100551.34;6643835;26;32605;-89
2022/10/03 11:44:12;;;;;;;2.60;1.52;;;;;;;17.62;57.11;100548.13;6664121;26;33001;-89
2022/10/03 11:48:03;;;;;;;4.72;1.50;;;;;;;17.00;59.76;100547.84;6664214;26;34598;-89
2022/10/03 11:51:17;;;;;;;3.10;1.55;;;;;;;16.64;61.88;100547.53;6553768;26;33511;-89
2022/10/03 11:54:35;;;;;;;1.12;1.05;;;;;;;16.48;62.17;100552.37;6664507;26;34996;-89
2022/10/03 11:57:38;;;;;;;2.15;1.30;;;;;;;16.33;62.36;100558.06;6644173;26;33283;-89
2022/10/03 12:00:46;;;;;;;2.67;1.00;;;;;;;16.19;62.81;100558.28;6660713;26;33886;-88
2022/10/03 12:04:13;;;;;;;1.90;1.42;;;;;;;16.23;62.43;100551.38;6663896;26;34227;-89
2022/10/03 12:19:46;;;;;;;2.40;1.30;;;;;;;14.01;87.67;100554.50;6609273;26;20347;-89
2022/10/03 12:23:07;;;;;;;1.85;1.40;;;;;;;15.98;77.66;100545.75;6636626;26;33446;-89
2022/10/03 12:26:20;;;;;;;3.00;1.50;;;;;;;16.30;73.72;100565.78;6620496;26;32069;-89
2022/10/03 12:29:32;;;;;;;1.48;1.37;;;;;;;15.20;80.31;100570.62;6633619;26;33388;-89
2022/10/03 12:32:50;;;;;;;6.82;1.37;;;;;;;15.20;84.98;100563.34;6638734;26;33608;-89
2022/10/03 12:36:02;;;;;;;2.03;1.67;;;;;;;18.05;71.69;100554.78;6638566;26;34264;-89
2022/10/03 12:39:27;;;;;;;2.83;1.30;;;;;;;20.09;58.67;100560.59;6665515;26;33470;-88
2022/10/03 12:42:46;;;;;;;3.05;1.15;;;;;;;19.37;60.28;100568.84;6669859;26;33603;-89
2022/10/03 12:46:21;;;;;;;2.30;1.30;;;;;;;17.39;65.70;100573.19;6664389;26;34906;-90
2022/10/03 12:49:50;;;;;;;1.58;0.70;;;;;;;15.96;70.41;100564.97;6629755;26;33929;-89
2022/10/03 12:53:18;;;;;;;1.10;0.90;;;;;;;16.22;69.60;100550.53;6663991;26;33129;-89
2022/10/03 12:56:21;;;;;;;1.90;1.02;;;;;;;17.13;63.03;100551.56;6664018;26;33581;-89
2022/10/03 12:59:43;;;;;;;3.22;1.02;;;;;;;17.41;63.54;100545.78;6664595;26;34272;-89
2022/10/03 13:02:57;;;;;;;1.92;0.98;;;;;;;17.45;61.42;100557.88;6668347;26;33844;-89
2022/10/03 13:06:19;;;;;;;2.65;0.90;;;;;;;18.40;58.22;100549.63;6665513;26;33377;-89
2022/10/03 13:09:44;;;;;;;1.55;0.90;;;;;;;20.25;50.43;100550.06;6665071;26;33193;-89
2022/10/03 13:13:09;;;;;;;2.77;1.00;;;;;;;19.68;52.97;100559.56;6645162;26;33213;-91
2022/10/03 13:16:31;;;;;;;1.62;1.00;;;;;;;18.25;55.40;100549.13;6665245;26;33692;-89
2022/10/03 13:19:50;;;;;;;1.80;1.20;;;;;;;18.09;58.34;100556.81;6665174;26;34473;-89
2022/10/03 13:22:52;;;;;;;2.03;1.33;;;;;;;19.28;54.11;100562.03;6667104;26;34084;-89
2022/10/03 13:26:26;;;;;;;1.60;1.08;;;;;;;19.42;52.48;100566.25;6671499;26;33746;-89
2022/10/03 13:29:43;;;;;;;1.30;0.95;;;;;;;18.57;54.09;100564.34;6664124;26;33802;-89
2022/10/03 13:32:55;;;;;;;2.22;1.33;;;;;;;17.93;57.93;100559.25;6662451;26;34296;-89
2022/10/03 13:36:13;;;;;;;2.45;1.12;;;;;;;17.23;60.00;100550.06;6641693;26;32857;-89
2022/10/03 13:39:25;;;;;;;4.07;1.37;;;;;;;16.80;61.55;100557.97;6661271;26;33423;-89
2022/10/03 13:42:38;;;;;;;2.80;1.30;;;;;;;16.47;65.24;100550.72;6662702;26;33271;-89
2022/10/03 13:45:45;;;;;;;2.17;1.30;;;;;;;16.37;66.12;100558.47;6662482;26;33530;-89
2022/10/03 13:48:59;;;;;;;5.55;1.52;;;;;;;16.58;65.12;100548.38;6662131;26;34967;-89
2022/10/03 13:52:28;;;;;;;3.37;1.37;;;;;;;16.78;64.83;100543.75;6663227;26;35327;-89
2022/10/03 13:55:39;;;;;;;5.55;1.37;;;;;;;17.12;65.02;100539.03;6662847;26;34960;-88
2022/10/03 13:59:04;;;;;;;1.02;0.93;;;;;;;16.60;64.32;100538.13;6663067;26;33575;-88
2022/10/03 14:02:43;;;;;;;3.87;1.27;;;;;;;16.59;63.83;100545.47;6642319;26;31965;-88
2022/10/03 14:05:51;;;;;;;2.60;1.40;;;;;;;16.62;63.77;100555.09;6664721;26;33591;-88
2022/10/03 14:09:11;;;;;;;2.58;1.12;;;;;;;16.31;63.75;100546.56;6663872;26;33534;-88
2022/10/03 14:12:53;;;;;;;2.87;1.17;;;;;;;16.10;65.10;100547.62;6665412;26;34593;-88
2022/10/03 14:16:14;;;;;;;1.62;1.20;;;;;;;15.88;66.30;100559.72;6617799;26;32741;-88
2022/10/03 14:19:42;;;;;;;2.25;1.37;;;;;;;15.75;66.48;100551.59;6637215;26;33666;-88
2022/10/03 14:22:58;;;;;;;1.80;1.10;;;;;;;16.01;64.50;100545.34;6616442;26;32068;-89
2022/10/03 14:26:19;;;;;;;2.05;1.15;;;;;;;15.94;65.95;100556.22;6639232;26;33288;-89
2022/10/03 14:29:59;;;;;;;3.55;1.12;;;;;;;15.78;65.43;100552.00;6639002;26;33941;-89
2022/10/03 14:33:26;;;;;;;1.55;1.15;;;;;;;15.69;66.24;100547.00;6638090;26;33756;-89
2022/10/03 14:37:06;;;;;;;2.28;1.10;;;;;;;15.68;64.81;100542.59;6637286;26;34870;-91
2022/10/03 14:40:22;;;;;;;1.67;1.15;;;;;;;15.63;65.46;100557.59;6616573;26;31665;-89
2022/10/03 14:43:35;;;;;;;1.50;1.10;;;;;;;15.43;65.96;100551.31;6636269;26;33203;-89
2022/10/03 14:46:45;;;;;;;1.23;1.23;;;;;;;15.33;65.36;100542.75;6635912;26;33754;-89
2022/10/03 14:49:58;;;;;;;1.60;1.20;;;;;;;15.31;65.26;100542.09;6615987;26;32556;-89
2022/10/03 14:53:23;;;;;;;1.83;1.25;;;;;;;15.22;65.18;100536.03;6652835;26;34937;-89
2022/10/03 14:56:26;;;;;;;5.00;1.30;;;;;;;15.10;64.00;100529.53;6657494;26;32065;-89
2022/10/03 14:59:34;;;;;;;4.30;1.60;;;;;;;14.98;65.92;100544.72;6663525;26;33693;-88
2022/10/03 15:02:44;;;;;;;1.55;1.08;;;;;;;14.85;64.72;100540.06;6681199;26;33364;-89
2022/10/03 15:05:50;;;;;;;2.83;1.45;;;;;;;14.92;65.08;100559.91;6639558;26;33433;-89
2022/10/03 15:08:56;;;;;;;1.92;1.20;;;;;;;14.82;65.82;100554.00;6643100;26;31921;-89
2022/10/03 15:12:03;;;;;;;1.85;1.35;;;;;;;14.79;66.46;100555.25;6643610;26;32315;-89
2022/10/03 15:15:09;;;;;;;2.90;1.23;;;;;;;14.73;67.77;100554.16;6665389;26;33105;-89
2022/10/03 15:18:19;;;;;;;3.05;1.40;;;;;;;14.70;65.91;100562.72;6645209;26;32174;-89
2022/10/03 15:21:58;;;;;;;1.33;1.20;;;;;;;14.63;67.06;100556.44;6665934;26;34863;31
2022/10/03 15:25:11;;;;;;;1.45;1.12;;;;;;;14.56;66.55;100549.28;6553644;27;34060;-89
2022/10/03 15:28:29;;;;;;;3.03;1.15;;;;;;;14.51;67.10;100544.44;6554671;27;33621;-89
2022/10/03 15:31:35;;;;;;;3.60;1.30;;;;;;;14.43;68.44;100550.03;6533682;27;33722;-89
2022/10/03 15:34:39;;;;;;;1.30;1.20;;;;;;;14.42;67.82;100548.31;6553725;27;33891;-90
2022/10/03 15:37:42;;;;;;;1.08;0.90;;;;;;;14.41;68.73;100558.34;6553917;27;33970;-89
2022/10/03 15:41:08;;;;;;;2.65;1.05;;;;;;;14.49;68.63;100551.94;6553314;27;34128;-90
2022/10/03 15:44:31;;;;;;;3.25;1.30;;;;;;;14.38;68.09;100557.91;6553354;27;33971;-90
2022/10/03 15:47:40;;;;;;;3.55;1.12;;;;;;;14.26;67.99;100558.44;6553025;27;34030;-90
2022/10/03 15:50:50;;;;;;;1.40;1.30;;;;;;;14.25;68.16;100555.94;6552603;27;34935;-89
2022/10/03 15:53:57;;;;;;;2.10;1.62;;;;;;;14.10;68.68;100552.47;6552648;27;34959;-89
2022/10/03 15:57:02;;;;;;;1.20;1.02;;;;;;;14.00;68.06;100552.81;6552988;27;33386;-89
